sensor_id;sensor_type;location;lat;lon;timestamp;P1;durP1;ratioP1;P2;durP2;ratioP2
4895;SDS011;2463;49.948;8.472;2023-10-19T00:02:07;94.80;;;7.38;;
4895;SDS011;2463;49.948;8.472;2023-10-19T00:04:34;94.70;;;7.40;;
4895;SDS011;2463;49.948;8.472;2023-10-19T00:07:02;95.78;;;7.90;;
4895;SDS011;2463;49.948;8.472;2023-10-19T00:09:32;92.78;;;6.75;;
4895;SDS011;2463;49.948;8.472;2023-10-19T00:12:05;94.35;;;7.22;;
4895;SDS011;2463;49.948;8.472;2023-10-19T00:14:35;92.97;;;6.72;;
4895;SDS011;2463;49.948;8.472;2023-10-19T00:17:01;98.30;;;7.25;;
4895;SDS011;2463;49.948;8.472;2023-10-19T00:19:37;92.75;;;6.40;;
4895;SDS011;2463;49.948;8.472;2023-10-19T00:22:23;92.50;;;6.63;;
4895;SDS011;2463;49.948;8.472;2023-10-19T00:24:50;93.13;;;6.65;;
4895;SDS011;2463;49.948;8.472;2023-10-19T00:27:17;94.75;;;7.20;;
4895;SDS011;2463;49.948;8.472;2023-10-19T00:29:45;92.63;;;6.60;;
4895;SDS011;2463;49.948;8.472;2023-10-19T00:32:15;94.22;;;6.95;;
4895;SDS011;2463;49.948;8.472;2023-10-19T00:34:44;96.60;;;7.20;;
4895;SDS011;2463;49.948;8.472;2023-10-19T00:37:18;93.30;;;7.20;;
4895;SDS011;2463;49.948;8.472;2023-10-19T00:39:58;96.25;;;6.80;;
4895;SDS011;2463;49.948;8.472;2023-10-19T00:42:40;94.70;;;7.38;;
4895;SDS011;2463;49.948;8.472;2023-10-19T00:45:12;92.72;;;6.78;;
4895;SDS011;2463;49.948;8.472;2023-10-19T00:47:39;93.88;;;6.72;;
4895;SDS011;2463;49.948;8.472;2023-10-19T00:50:07;96.65;;;6.97;;
4895;SDS011;2463;49.948;8.472;2023-10-19T00:52:42;96.30;;;7.47;;
4895;SDS011;2463;49.948;8.472;2023-10-19T00:55:16;93.63;;;7.07;;
4895;SDS011;2463;49.948;8.472;2023-10-19T00:57:47;94.82;;;7.15;;
4895;SDS011;2463;49.948;8.472;2023-10-19T01:00:15;92.57;;;6.72;;
4895;SDS011;2463;49.948;8.472;2023-10-19T01:02:56;94.05;;;7.18;;
4895;SDS011;2463;49.948;8.472;2023-10-19T01:05:26;97.22;;;7.10;;
4895;SDS011;2463;49.948;8.472;2023-10-19T01:08:02;94.25;;;7.30;;
4895;SDS011;2463;49.948;8.472;2023-10-19T01:10:41;92.60;;;6.95;;
4895;SDS011;2463;49.948;8.472;2023-10-19T01:13:11;93.57;;;7.43;;
4895;SDS011;2463;49.948;8.472;2023-10-19T01:15:38;94.95;;;7.75;;
4895;SDS011;2463;49.948;8.472;2023-10-19T01:18:05;94.22;;;7.53;;
4895;SDS011;2463;49.948;8.472;2023-10-19T01:20:33;95.03;;;8.15;;
4895;SDS011;2463;49.948;8.472;2023-10-19T01:23:14;95.70;;;7.78;;
4895;SDS011;2463;49.948;8.472;2023-10-19T01:25:50;95.00;;;7.47;;
4895;SDS011;2463;49.948;8.472;2023-10-19T01:28:22;94.60;;;7.20;;
4895;SDS011;2463;49.948;8.472;2023-10-19T01:31:11;96.20;;;8.13;;
4895;SDS011;2463;49.948;8.472;2023-10-19T01:33:55;95.07;;;8.05;;
4895;SDS011;2463;49.948;8.472;2023-10-19T01:36:27;95.68;;;7.70;;
4895;SDS011;2463;49.948;8.472;2023-10-19T01:38:55;95.43;;;7.90;;
4895;SDS011;2463;49.948;8.472;2023-10-19T01:41:27;93.35;;;6.78;;
4895;SDS011;2463;49.948;8.472;2023-10-19T01:43:56;95.82;;;7.68;;
4895;SDS011;2463;49.948;8.472;2023-10-19T01:46:30;96.45;;;8.13;;
4895;SDS011;2463;49.948;8.472;2023-10-19T01:49:01;95.55;;;7.53;;
4895;SDS011;2463;49.948;8.472;2023-10-19T01:51:31;95.05;;;7.88;;
4895;SDS011;2463;49.948;8.472;2023-10-19T01:54:18;97.10;;;8.68;;
4895;SDS011;2463;49.948;8.472;2023-10-19T01:56:52;100.20;;;8.85;;
4895;SDS011;2463;49.948;8.472;2023-10-19T01:59:24;96.57;;;8.70;;
4895;SDS011;2463;49.948;8.472;2023-10-19T02:01:58;97.18;;;8.77;;
4895;SDS011;2463;49.948;8.472;2023-10-19T02:04:24;98.68;;;9.20;;
4895;SDS011;2463;49.948;8.472;2023-10-19T02:06:52;98.95;;;9.55;;
4895;SDS011;2463;49.948;8.472;2023-10-19T02:09:19;98.20;;;10.30;;
4895;SDS011;2463;49.948;8.472;2023-10-19T02:11:50;95.57;;;8.02;;
4895;SDS011;2463;49.948;8.472;2023-10-19T02:14:25;97.85;;;9.23;;
4895;SDS011;2463;49.948;8.472;2023-10-19T02:16:55;99.30;;;8.85;;
4895;SDS011;2463;49.948;8.472;2023-10-19T02:19:25;98.30;;;10.10;;
4895;SDS011;2463;49.948;8.472;2023-10-19T02:21:55;97.55;;;9.00;;
4895;SDS011;2463;49.948;8.472;2023-10-19T02:24:23;98.15;;;9.50;;
4895;SDS011;2463;49.948;8.472;2023-10-19T02:26:55;96.85;;;8.85;;
4895;SDS011;2463;49.948;8.472;2023-10-19T02:29:23;103.22;;;10.77;;
4895;SDS011;2463;49.948;8.472;2023-10-19T02:31:50;98.95;;;10.30;;
4895;SDS011;2463;49.948;8.472;2023-10-19T02:34:17;102.40;;;10.80;;
4895;SDS011;2463;49.948;8.472;2023-10-19T02:36:44;98.82;;;10.10;;
4895;SDS011;2463;49.948;8.472;2023-10-19T02:39:12;100.93;;;11.32;;
4895;SDS011;2463;49.948;8.472;2023-10-19T02:41:41;98.38;;;10.02;;
4895;SDS011;2463;49.948;8.472;2023-10-19T02:44:11;103.03;;;11.68;;
4895;SDS011;2463;49.948;8.472;2023-10-19T02:46:42;104.63;;;11.57;;
4895;SDS011;2463;49.948;8.472;2023-10-19T02:49:10;102.30;;;10.48;;
4895;SDS011;2463;49.948;8.472;2023-10-19T02:51:39;106.70;;;11.35;;
4895;SDS011;2463;49.948;8.472;2023-10-19T02:54:07;109.47;;;12.35;;
4895;SDS011;2463;49.948;8.472;2023-10-19T02:56:35;105.63;;;12.05;;
4895;SDS011;2463;49.948;8.472;2023-10-19T02:59:02;100.45;;;9.85;;
4895;SDS011;2463;49.948;8.472;2023-10-19T03:01:30;106.25;;;12.52;;
4895;SDS011;2463;49.948;8.472;2023-10-19T03:04:00;102.50;;;10.63;;
4895;SDS011;2463;49.948;8.472;2023-10-19T03:06:28;102.63;;;10.80;;
4895;SDS011;2463;49.948;8.472;2023-10-19T03:09:00;102.13;;;10.45;;
4895;SDS011;2463;49.948;8.472;2023-10-19T03:11:39;104.15;;;12.25;;
4895;SDS011;2463;49.948;8.472;2023-10-19T03:14:07;102.20;;;11.65;;
4895;SDS011;2463;49.948;8.472;2023-10-19T03:16:35;100.35;;;10.40;;
4895;SDS011;2463;49.948;8.472;2023-10-19T03:19:03;101.22;;;10.68;;
4895;SDS011;2463;49.948;8.472;2023-10-19T03:21:30;100.95;;;10.30;;
4895;SDS011;2463;49.948;8.472;2023-10-19T03:24:09;105.43;;;10.70;;
4895;SDS011;2463;49.948;8.472;2023-10-19T03:26:49;99.85;;;11.70;;
4895;SDS011;2463;49.948;8.472;2023-10-19T03:29:16;102.95;;;10.68;;
4895;SDS011;2463;49.948;8.472;2023-10-19T03:31:48;104.28;;;12.45;;
4895;SDS011;2463;49.948;8.472;2023-10-19T03:34:15;100.80;;;11.00;;
4895;SDS011;2463;49.948;8.472;2023-10-19T03:36:44;102.53;;;11.32;;
4895;SDS011;2463;49.948;8.472;2023-10-19T03:39:11;103.57;;;11.65;;
4895;SDS011;2463;49.948;8.472;2023-10-19T03:41:42;101.70;;;11.82;;
4895;SDS011;2463;49.948;8.472;2023-10-19T03:44:10;98.93;;;10.35;;
4895;SDS011;2463;49.948;8.472;2023-10-19T03:46:45;102.20;;;10.60;;
4895;SDS011;2463;49.948;8.472;2023-10-19T03:49:24;101.63;;;11.13;;
4895;SDS011;2463;49.948;8.472;2023-10-19T03:51:56;99.15;;;10.80;;
4895;SDS011;2463;49.948;8.472;2023-10-19T03:54:35;99.20;;;10.07;;
4895;SDS011;2463;49.948;8.472;2023-10-19T03:57:07;105.47;;;11.40;;
4895;SDS011;2463;49.948;8.472;2023-10-19T03:59:55;100.50;;;11.15;;
4895;SDS011;2463;49.948;8.472;2023-10-19T04:02:24;109.80;;;12.57;;
4895;SDS011;2463;49.948;8.472;2023-10-19T04:04:53;102.00;;;11.82;;
4895;SDS011;2463;49.948;8.472;2023-10-19T04:07:22;99.88;;;10.82;;
4895;SDS011;2463;49.948;8.472;2023-10-19T04:09:53;106.93;;;12.82;;
4895;SDS011;2463;49.948;8.472;2023-10-19T04:12:39;105.03;;;12.95;;
4895;SDS011;2463;49.948;8.472;2023-10-19T04:15:10;102.25;;;11.43;;
4895;SDS011;2463;49.948;8.472;2023-10-19T04:17:43;105.28;;;12.30;;
4895;SDS011;2463;49.948;8.472;2023-10-19T04:20:15;109.88;;;14.40;;
4895;SDS011;2463;49.948;8.472;2023-10-19T04:22:43;108.63;;;13.68;;
4895;SDS011;2463;49.948;8.472;2023-10-19T04:25:14;105.72;;;12.35;;
4895;SDS011;2463;49.948;8.472;2023-10-19T04:27:42;101.78;;;11.10;;
4895;SDS011;2463;49.948;8.472;2023-10-19T04:30:10;106.13;;;13.15;;
4895;SDS011;2463;49.948;8.472;2023-10-19T04:32:53;101.00;;;10.45;;
4895;SDS011;2463;49.948;8.472;2023-10-19T04:35:23;105.05;;;13.85;;
4895;SDS011;2463;49.948;8.472;2023-10-19T04:37:51;103.00;;;12.27;;
4895;SDS011;2463;49.948;8.472;2023-10-19T04:40:19;101.63;;;12.65;;
4895;SDS011;2463;49.948;8.472;2023-10-19T04:42:47;103.18;;;10.98;;
4895;SDS011;2463;49.948;8.472;2023-10-19T04:45:15;105.80;;;10.82;;
4895;SDS011;2463;49.948;8.472;2023-10-19T04:47:41;101.82;;;10.68;;
4895;SDS011;2463;49.948;8.472;2023-10-19T04:50:08;105.13;;;11.60;;
4895;SDS011;2463;49.948;8.472;2023-10-19T04:52:37;108.32;;;11.70;;
4895;SDS011;2463;49.948;8.472;2023-10-19T04:55:04;108.75;;;12.93;;
4895;SDS011;2463;49.948;8.472;2023-10-19T04:57:31;110.85;;;12.48;;
4895;SDS011;2463;49.948;8.472;2023-10-19T04:59:58;108.75;;;12.32;;
4895;SDS011;2463;49.948;8.472;2023-10-19T05:02:25;106.93;;;11.88;;
4895;SDS011;2463;49.948;8.472;2023-10-19T05:04:52;109.38;;;11.60;;
4895;SDS011;2463;49.948;8.472;2023-10-19T05:07:18;106.47;;;11.60;;
4895;SDS011;2463;49.948;8.472;2023-10-19T05:09:45;107.25;;;13.48;;
4895;SDS011;2463;49.948;8.472;2023-10-19T05:12:13;108.55;;;13.60;;
4895;SDS011;2463;49.948;8.472;2023-10-19T05:14:41;103.18;;;11.90;;
4895;SDS011;2463;49.948;8.472;2023-10-19T05:17:09;107.80;;;12.57;;
4895;SDS011;2463;49.948;8.472;2023-10-19T05:19:36;105.78;;;11.68;;
4895;SDS011;2463;49.948;8.472;2023-10-19T05:22:06;108.35;;;12.27;;
4895;SDS011;2463;49.948;8.472;2023-10-19T05:24:34;107.20;;;13.50;;
4895;SDS011;2463;49.948;8.472;2023-10-19T05:27:01;107.85;;;12.48;;
4895;SDS011;2463;49.948;8.472;2023-10-19T05:29:31;112.28;;;13.55;;
4895;SDS011;2463;49.948;8.472;2023-10-19T05:31:59;105.55;;;12.70;;
4895;SDS011;2463;49.948;8.472;2023-10-19T05:34:27;105.78;;;12.65;;
4895;SDS011;2463;49.948;8.472;2023-10-19T05:36:55;107.88;;;12.93;;
4895;SDS011;2463;49.948;8.472;2023-10-19T05:39:25;104.28;;;12.20;;
4895;SDS011;2463;49.948;8.472;2023-10-19T05:41:57;110.00;;;13.35;;
4895;SDS011;2463;49.948;8.472;2023-10-19T05:44:30;111.90;;;13.43;;
4895;SDS011;2463;49.948;8.472;2023-10-19T05:46:58;110.10;;;13.73;;
4895;SDS011;2463;49.948;8.472;2023-10-19T05:49:26;108.53;;;13.30;;
4895;SDS011;2463;49.948;8.472;2023-10-19T05:51:56;113.32;;;12.65;;
4895;SDS011;2463;49.948;8.472;2023-10-19T05:54:23;104.57;;;11.13;;
4895;SDS011;2463;49.948;8.472;2023-10-19T05:56:50;110.82;;;12.80;;
4895;SDS011;2463;49.948;8.472;2023-10-19T05:59:18;110.28;;;12.63;;
4895;SDS011;2463;49.948;8.472;2023-10-19T06:01:45;110.45;;;15.02;;
4895;SDS011;2463;49.948;8.472;2023-10-19T06:04:13;109.10;;;12.88;;
4895;SDS011;2463;49.948;8.472;2023-10-19T06:06:41;108.93;;;13.38;;
4895;SDS011;2463;49.948;8.472;2023-10-19T06:09:08;109.20;;;12.65;;
4895;SDS011;2463;49.948;8.472;2023-10-19T06:11:35;105.10;;;11.60;;
4895;SDS011;2463;49.948;8.472;2023-10-19T06:14:04;105.38;;;12.43;;
4895;SDS011;2463;49.948;8.472;2023-10-19T06:16:33;110.57;;;12.85;;
4895;SDS011;2463;49.948;8.472;2023-10-19T06:19:00;109.38;;;13.80;;
4895;SDS011;2463;49.948;8.472;2023-10-19T06:21:28;109.05;;;13.75;;
4895;SDS011;2463;49.948;8.472;2023-10-19T06:23:56;114.28;;;13.15;;
4895;SDS011;2463;49.948;8.472;2023-10-19T06:26:22;109.95;;;13.50;;
4895;SDS011;2463;49.948;8.472;2023-10-19T06:28:49;115.65;;;17.08;;
4895;SDS011;2463;49.948;8.472;2023-10-19T06:31:17;108.93;;;13.77;;
4895;SDS011;2463;49.948;8.472;2023-10-19T06:33:43;108.30;;;13.88;;
4895;SDS011;2463;49.948;8.472;2023-10-19T06:36:10;108.43;;;13.68;;
4895;SDS011;2463;49.948;8.472;2023-10-19T06:38:37;110.50;;;13.25;;
4895;SDS011;2463;49.948;8.472;2023-10-19T06:41:10;105.40;;;12.27;;
4895;SDS011;2463;49.948;8.472;2023-10-19T06:43:40;110.55;;;13.65;;
4895;SDS011;2463;49.948;8.472;2023-10-19T06:46:08;112.03;;;14.32;;
4895;SDS011;2463;49.948;8.472;2023-10-19T06:48:38;108.75;;;12.85;;
4895;SDS011;2463;49.948;8.472;2023-10-19T06:51:05;110.68;;;14.27;;
4895;SDS011;2463;49.948;8.472;2023-10-19T06:53:33;111.68;;;15.20;;
4895;SDS011;2463;49.948;8.472;2023-10-19T06:56:00;116.78;;;14.93;;
4895;SDS011;2463;49.948;8.472;2023-10-19T06:58:27;108.72;;;13.35;;
4895;SDS011;2463;49.948;8.472;2023-10-19T07:00:54;113.53;;;15.05;;
4895;SDS011;2463;49.948;8.472;2023-10-19T07:03:26;108.65;;;14.65;;
4895;SDS011;2463;49.948;8.472;2023-10-19T07:05:54;110.38;;;13.32;;
4895;SDS011;2463;49.948;8.472;2023-10-19T07:08:22;115.18;;;15.23;;
4895;SDS011;2463;49.948;8.472;2023-10-19T07:10:49;109.72;;;13.65;;
4895;SDS011;2463;49.948;8.472;2023-10-19T07:13:16;108.45;;;13.80;;
4895;SDS011;2463;49.948;8.472;2023-10-19T07:15:46;118.63;;;13.77;;
4895;SDS011;2463;49.948;8.472;2023-10-19T07:18:15;115.60;;;16.05;;
4895;SDS011;2463;49.948;8.472;2023-10-19T07:20:42;114.43;;;15.27;;
4895;SDS011;2463;49.948;8.472;2023-10-19T07:23:09;114.40;;;15.00;;
4895;SDS011;2463;49.948;8.472;2023-10-19T07:25:46;110.78;;;13.40;;
4895;SDS011;2463;49.948;8.472;2023-10-19T07:28:15;139.82;;;17.30;;
4895;SDS011;2463;49.948;8.472;2023-10-19T07:30:42;109.47;;;13.45;;
4895;SDS011;2463;49.948;8.472;2023-10-19T07:33:10;114.28;;;15.85;;
4895;SDS011;2463;49.948;8.472;2023-10-19T07:35:44;110.93;;;14.00;;
4895;SDS011;2463;49.948;8.472;2023-10-19T07:38:18;114.53;;;15.55;;
4895;SDS011;2463;49.948;8.472;2023-10-19T07:40:47;117.68;;;15.07;;
4895;SDS011;2463;49.948;8.472;2023-10-19T07:43:14;115.03;;;14.60;;
4895;SDS011;2463;49.948;8.472;2023-10-19T07:45:41;115.38;;;15.02;;
4895;SDS011;2463;49.948;8.472;2023-10-19T07:48:09;108.63;;;13.30;;
4895;SDS011;2463;49.948;8.472;2023-10-19T07:50:39;111.28;;;13.85;;
4895;SDS011;2463;49.948;8.472;2023-10-19T07:53:09;108.13;;;12.90;;
4895;SDS011;2463;49.948;8.472;2023-10-19T07:55:36;106.28;;;13.93;;
4895;SDS011;2463;49.948;8.472;2023-10-19T07:58:05;107.10;;;14.35;;
4895;SDS011;2463;49.948;8.472;2023-10-19T08:00:34;114.65;;;13.35;;
4895;SDS011;2463;49.948;8.472;2023-10-19T08:03:02;110.80;;;13.98;;
4895;SDS011;2463;49.948;8.472;2023-10-19T08:05:30;108.20;;;14.45;;
4895;SDS011;2463;49.948;8.472;2023-10-19T08:07:58;113.30;;;13.60;;
4895;SDS011;2463;49.948;8.472;2023-10-19T08:10:26;104.93;;;12.13;;
4895;SDS011;2463;49.948;8.472;2023-10-19T08:12:53;111.05;;;12.73;;
4895;SDS011;2463;49.948;8.472;2023-10-19T08:15:21;103.65;;;12.88;;
4895;SDS011;2463;49.948;8.472;2023-10-19T08:17:49;104.10;;;12.13;;
4895;SDS011;2463;49.948;8.472;2023-10-19T08:20:17;109.15;;;12.27;;
4895;SDS011;2463;49.948;8.472;2023-10-19T08:22:51;110.00;;;13.00;;
4895;SDS011;2463;49.948;8.472;2023-10-19T08:25:19;106.60;;;12.90;;
4895;SDS011;2463;49.948;8.472;2023-10-19T08:27:47;104.65;;;13.18;;
4895;SDS011;2463;49.948;8.472;2023-10-19T08:30:17;101.57;;;11.95;;
4895;SDS011;2463;49.948;8.472;2023-10-19T08:32:47;104.10;;;11.82;;
4895;SDS011;2463;49.948;8.472;2023-10-19T08:35:15;104.28;;;13.43;;
4895;SDS011;2463;49.948;8.472;2023-10-19T08:37:46;103.43;;;12.40;;
4895;SDS011;2463;49.948;8.472;2023-10-19T08:40:14;104.45;;;12.77;;
4895;SDS011;2463;49.948;8.472;2023-10-19T08:42:42;109.88;;;14.32;;
4895;SDS011;2463;49.948;8.472;2023-10-19T08:45:09;103.07;;;12.85;;
4895;SDS011;2463;49.948;8.472;2023-10-19T08:47:48;105.32;;;12.80;;
4895;SDS011;2463;49.948;8.472;2023-10-19T08:50:26;104.03;;;12.75;;
4895;SDS011;2463;49.948;8.472;2023-10-19T08:52:55;105.07;;;12.27;;
4895;SDS011;2463;49.948;8.472;2023-10-19T08:55:25;101.38;;;12.35;;
4895;SDS011;2463;49.948;8.472;2023-10-19T08:58:12;102.28;;;11.93;;
4895;SDS011;2463;49.948;8.472;2023-10-19T09:00:46;103.35;;;13.02;;
4895;SDS011;2463;49.948;8.472;2023-10-19T09:03:25;102.03;;;12.07;;
4895;SDS011;2463;49.948;8.472;2023-10-19T09:05:53;102.88;;;12.25;;
4895;SDS011;2463;49.948;8.472;2023-10-19T09:08:20;105.60;;;12.48;;
4895;SDS011;2463;49.948;8.472;2023-10-19T09:10:49;104.22;;;13.48;;
4895;SDS011;2463;49.948;8.472;2023-10-19T09:13:19;101.22;;;12.05;;
4895;SDS011;2463;49.948;8.472;2023-10-19T09:15:46;101.18;;;11.52;;
4895;SDS011;2463;49.948;8.472;2023-10-19T09:18:21;103.60;;;13.10;;
4895;SDS011;2463;49.948;8.472;2023-10-19T09:20:50;102.47;;;12.95;;
4895;SDS011;2463;49.948;8.472;2023-10-19T09:23:36;105.65;;;13.48;;
4895;SDS011;2463;49.948;8.472;2023-10-19T09:26:04;104.45;;;12.65;;
4895;SDS011;2463;49.948;8.472;2023-10-19T09:28:34;103.75;;;11.90;;
4895;SDS011;2463;49.948;8.472;2023-10-19T09:31:03;100.50;;;11.98;;
4895;SDS011;2463;49.948;8.472;2023-10-19T09:33:31;100.15;;;11.82;;
4895;SDS011;2463;49.948;8.472;2023-10-19T09:36:01;97.72;;;10.52;;
4895;SDS011;2463;49.948;8.472;2023-10-19T09:38:30;101.78;;;10.95;;
4895;SDS011;2463;49.948;8.472;2023-10-19T09:40:58;100.10;;;11.52;;
4895;SDS011;2463;49.948;8.472;2023-10-19T09:46:06;97.53;;;10.35;;
4895;SDS011;2463;49.948;8.472;2023-10-19T09:48:37;98.60;;;11.60;;
4895;SDS011;2463;49.948;8.472;2023-10-19T09:51:09;97.85;;;10.55;;
4895;SDS011;2463;49.948;8.472;2023-10-19T09:53:39;95.93;;;10.05;;
4895;SDS011;2463;49.948;8.472;2023-10-19T09:56:06;94.05;;;9.05;;
4895;SDS011;2463;49.948;8.472;2023-10-19T09:58:48;93.93;;;8.55;;
4895;SDS011;2463;49.948;8.472;2023-10-19T10:01:24;92.15;;;8.85;;
4895;SDS011;2463;49.948;8.472;2023-10-19T10:03:52;91.88;;;8.20;;
4895;SDS011;2463;49.948;8.472;2023-10-19T10:08:58;92.15;;;9.05;;
4895;SDS011;2463;49.948;8.472;2023-10-19T10:11:26;94.03;;;8.82;;
4895;SDS011;2463;49.948;8.472;2023-10-19T10:13:57;90.95;;;7.93;;
4895;SDS011;2463;49.948;8.472;2023-10-19T10:16:25;94.60;;;8.55;;
4895;SDS011;2463;49.948;8.472;2023-10-19T10:18:59;93.55;;;8.15;;
4895;SDS011;2463;49.948;8.472;2023-10-19T10:21:29;92.43;;;7.85;;
4895;SDS011;2463;49.948;8.472;2023-10-19T10:23:57;94.72;;;8.55;;
4895;SDS011;2463;49.948;8.472;2023-10-19T10:26:25;90.68;;;7.75;;
4895;SDS011;2463;49.948;8.472;2023-10-19T10:31:48;93.38;;;7.63;;
4895;SDS011;2463;49.948;8.472;2023-10-19T10:37:04;95.97;;;8.50;;
4895;SDS011;2463;49.948;8.472;2023-10-19T10:39:34;90.88;;;7.03;;
4895;SDS011;2463;49.948;8.472;2023-10-19T10:42:06;90.13;;;7.65;;
4895;SDS011;2463;49.948;8.472;2023-10-19T10:44:44;91.45;;;6.45;;
4895;SDS011;2463;49.948;8.472;2023-10-19T10:47:15;88.18;;;6.13;;
4895;SDS011;2463;49.948;8.472;2023-10-19T10:52:27;91.97;;;7.38;;
4895;SDS011;2463;49.948;8.472;2023-10-19T10:54:56;89.43;;;6.85;;
4895;SDS011;2463;49.948;8.472;2023-10-19T10:57:30;89.15;;;6.60;;
4895;SDS011;2463;49.948;8.472;2023-10-19T11:00:15;90.07;;;7.10;;
4895;SDS011;2463;49.948;8.472;2023-10-19T11:02:45;90.38;;;6.82;;
4895;SDS011;2463;49.948;8.472;2023-10-19T11:05:13;91.35;;;7.30;;
4895;SDS011;2463;49.948;8.472;2023-10-19T11:07:41;90.03;;;6.75;;
4895;SDS011;2463;49.948;8.472;2023-10-19T11:10:30;90.07;;;8.05;;
4895;SDS011;2463;49.948;8.472;2023-10-19T11:13:04;89.53;;;6.72;;
4895;SDS011;2463;49.948;8.472;2023-10-19T11:15:33;90.55;;;8.18;;
4895;SDS011;2463;49.948;8.472;2023-10-19T11:18:00;92.60;;;7.60;;
4895;SDS011;2463;49.948;8.472;2023-10-19T11:20:27;92.57;;;7.60;;
4895;SDS011;2463;49.948;8.472;2023-10-19T11:22:55;91.13;;;7.25;;
4895;SDS011;2463;49.948;8.472;2023-10-19T11:25:24;94.95;;;7.68;;
4895;SDS011;2463;49.948;8.472;2023-10-19T11:27:58;93.20;;;8.05;;
4895;SDS011;2463;49.948;8.472;2023-10-19T11:30:29;91.40;;;7.55;;
4895;SDS011;2463;49.948;8.472;2023-10-19T11:32:58;93.68;;;9.07;;
4895;SDS011;2463;49.948;8.472;2023-10-19T11:35:28;92.43;;;7.50;;
4895;SDS011;2463;49.948;8.472;2023-10-19T11:37:57;96.53;;;8.05;;
4895;SDS011;2463;49.948;8.472;2023-10-19T11:40:25;91.50;;;7.95;;
4895;SDS011;2463;49.948;8.472;2023-10-19T11:42:53;88.97;;;7.45;;
4895;SDS011;2463;49.948;8.472;2023-10-19T11:45:24;93.22;;;8.48;;
4895;SDS011;2463;49.948;8.472;2023-10-19T11:47:52;96.50;;;8.40;;
4895;SDS011;2463;49.948;8.472;2023-10-19T11:50:19;96.15;;;9.52;;
4895;SDS011;2463;49.948;8.472;2023-10-19T11:52:46;101.50;;;8.95;;
4895;SDS011;2463;49.948;8.472;2023-10-19T11:55:13;94.75;;;10.02;;
4895;SDS011;2463;49.948;8.472;2023-10-19T11:57:44;94.95;;;7.15;;
4895;SDS011;2463;49.948;8.472;2023-10-19T12:00:11;92.10;;;8.60;;
4895;SDS011;2463;49.948;8.472;2023-10-19T12:02:59;98.95;;;8.43;;
4895;SDS011;2463;49.948;8.472;2023-10-19T12:05:26;93.60;;;7.95;;
4895;SDS011;2463;49.948;8.472;2023-10-19T12:07:53;92.35;;;7.82;;
4895;SDS011;2463;49.948;8.472;2023-10-19T12:10:19;96.15;;;8.43;;
4895;SDS011;2463;49.948;8.472;2023-10-19T12:12:51;93.90;;;8.60;;
4895;SDS011;2463;49.948;8.472;2023-10-19T12:15:26;93.35;;;8.25;;
4895;SDS011;2463;49.948;8.472;2023-10-19T12:17:53;92.80;;;8.73;;
4895;SDS011;2463;49.948;8.472;2023-10-19T12:20:21;91.53;;;8.45;;
4895;SDS011;2463;49.948;8.472;2023-10-19T12:22:50;92.38;;;7.93;;
4895;SDS011;2463;49.948;8.472;2023-10-19T12:25:21;91.20;;;6.90;;
4895;SDS011;2463;49.948;8.472;2023-10-19T12:27:59;94.00;;;8.88;;
4895;SDS011;2463;49.948;8.472;2023-10-19T12:30:26;91.32;;;8.32;;
4895;SDS011;2463;49.948;8.472;2023-10-19T12:33:00;94.78;;;7.82;;
4895;SDS011;2463;49.948;8.472;2023-10-19T12:35:27;97.13;;;8.57;;
4895;SDS011;2463;49.948;8.472;2023-10-19T12:38:13;97.43;;;7.72;;
4895;SDS011;2463;49.948;8.472;2023-10-19T12:40:43;91.85;;;7.70;;
4895;SDS011;2463;49.948;8.472;2023-10-19T12:43:13;91.57;;;7.13;;
4895;SDS011;2463;49.948;8.472;2023-10-19T12:45:41;94.47;;;8.27;;
4895;SDS011;2463;49.948;8.472;2023-10-19T12:48:10;98.05;;;9.00;;
4895;SDS011;2463;49.948;8.472;2023-10-19T12:50:37;92.10;;;8.32;;
4895;SDS011;2463;49.948;8.472;2023-10-19T12:53:04;96.20;;;8.60;;
4895;SDS011;2463;49.948;8.472;2023-10-19T12:55:32;93.55;;;8.00;;
4895;SDS011;2463;49.948;8.472;2023-10-19T12:57:59;93.90;;;8.63;;
4895;SDS011;2463;49.948;8.472;2023-10-19T13:00:33;94.53;;;8.65;;
4895;SDS011;2463;49.948;8.472;2023-10-19T13:03:07;95.75;;;8.80;;
4895;SDS011;2463;49.948;8.472;2023-10-19T13:05:37;94.45;;;8.57;;
4895;SDS011;2463;49.948;8.472;2023-10-19T13:08:06;94.25;;;9.30;;
4895;SDS011;2463;49.948;8.472;2023-10-19T13:10:34;97.18;;;9.02;;
4895;SDS011;2463;49.948;8.472;2023-10-19T13:13:06;96.72;;;10.05;;
4895;SDS011;2463;49.948;8.472;2023-10-19T13:15:38;96.70;;;8.48;;
4895;SDS011;2463;49.948;8.472;2023-10-19T13:18:06;95.80;;;9.40;;
4895;SDS011;2463;49.948;8.472;2023-10-19T13:20:36;95.43;;;10.23;;
4895;SDS011;2463;49.948;8.472;2023-10-19T13:23:04;96.75;;;9.82;;
4895;SDS011;2463;49.948;8.472;2023-10-19T13:25:33;101.15;;;10.45;;
4895;SDS011;2463;49.948;8.472;2023-10-19T13:28:15;94.40;;;8.95;;
4895;SDS011;2463;49.948;8.472;2023-10-19T13:30:46;99.82;;;10.25;;
4895;SDS011;2463;49.948;8.472;2023-10-19T13:33:17;96.47;;;9.57;;
4895;SDS011;2463;49.948;8.472;2023-10-19T13:35:45;97.28;;;10.65;;
4895;SDS011;2463;49.948;8.472;2023-10-19T13:38:12;98.10;;;9.90;;
4895;SDS011;2463;49.948;8.472;2023-10-19T13:40:40;95.57;;;9.77;;
4895;SDS011;2463;49.948;8.472;2023-10-19T13:43:08;98.15;;;10.40;;
4895;SDS011;2463;49.948;8.472;2023-10-19T13:45:40;100.07;;;11.32;;
4895;SDS011;2463;49.948;8.472;2023-10-19T13:48:09;97.88;;;9.55;;
4895;SDS011;2463;49.948;8.472;2023-10-19T13:50:40;100.18;;;9.70;;
4895;SDS011;2463;49.948;8.472;2023-10-19T13:53:15;95.93;;;8.95;;
4895;SDS011;2463;49.948;8.472;2023-10-19T13:55:42;98.60;;;9.05;;
4895;SDS011;2463;49.948;8.472;2023-10-19T13:58:10;98.07;;;9.27;;
4895;SDS011;2463;49.948;8.472;2023-10-19T14:00:37;97.53;;;10.35;;
4895;SDS011;2463;49.948;8.472;2023-10-19T14:03:07;95.50;;;9.15;;
4895;SDS011;2463;49.948;8.472;2023-10-19T14:05:36;96.20;;;10.00;;
4895;SDS011;2463;49.948;8.472;2023-10-19T14:08:10;102.03;;;9.05;;
4895;SDS011;2463;49.948;8.472;2023-10-19T14:10:37;96.78;;;9.30;;
4895;SDS011;2463;49.948;8.472;2023-10-19T14:13:05;95.32;;;8.93;;
4895;SDS011;2463;49.948;8.472;2023-10-19T14:15:32;98.10;;;9.10;;
4895;SDS011;2463;49.948;8.472;2023-10-19T14:18:00;93.63;;;7.85;;
4895;SDS011;2463;49.948;8.472;2023-10-19T14:20:30;100.22;;;8.30;;
4895;SDS011;2463;49.948;8.472;2023-10-19T14:22:59;93.82;;;8.15;;
4895;SDS011;2463;49.948;8.472;2023-10-19T14:25:26;94.97;;;8.98;;
4895;SDS011;2463;49.948;8.472;2023-10-19T14:27:54;90.88;;;7.93;;
4895;SDS011;2463;49.948;8.472;2023-10-19T14:30:26;93.18;;;7.95;;
4895;SDS011;2463;49.948;8.472;2023-10-19T14:32:56;96.40;;;8.02;;
4895;SDS011;2463;49.948;8.472;2023-10-19T14:35:23;93.68;;;8.27;;
4895;SDS011;2463;49.948;8.472;2023-10-19T14:37:52;90.10;;;6.63;;
4895;SDS011;2463;49.948;8.472;2023-10-19T14:40:25;92.60;;;7.97;;
4895;SDS011;2463;49.948;8.472;2023-10-19T14:42:54;93.05;;;8.00;;
4895;SDS011;2463;49.948;8.472;2023-10-19T14:45:23;94.22;;;6.65;;
4895;SDS011;2463;49.948;8.472;2023-10-19T14:47:53;100.65;;;7.07;;
4895;SDS011;2463;49.948;8.472;2023-10-19T14:50:26;92.25;;;7.97;;
4895;SDS011;2463;49.948;8.472;2023-10-19T14:52:53;89.85;;;5.75;;
4895;SDS011;2463;49.948;8.472;2023-10-19T14:55:21;89.78;;;6.00;;
4895;SDS011;2463;49.948;8.472;2023-10-19T14:57:49;92.05;;;6.55;;
4895;SDS011;2463;49.948;8.472;2023-10-19T15:00:21;91.43;;;6.00;;
4895;SDS011;2463;49.948;8.472;2023-10-19T15:02:52;94.13;;;6.38;;
4895;SDS011;2463;49.948;8.472;2023-10-19T15:05:23;88.72;;;5.60;;
4895;SDS011;2463;49.948;8.472;2023-10-19T15:07:53;89.57;;;5.88;;
4895;SDS011;2463;49.948;8.472;2023-10-19T15:10:23;88.43;;;5.85;;
4895;SDS011;2463;49.948;8.472;2023-10-19T15:12:54;88.13;;;5.68;;
4895;SDS011;2463;49.948;8.472;2023-10-19T15:15:22;89.80;;;6.65;;
4895;SDS011;2463;49.948;8.472;2023-10-19T15:17:49;93.82;;;6.30;;
4895;SDS011;2463;49.948;8.472;2023-10-19T15:20:19;89.10;;;5.35;;